Time,TemperatureF,DewpointF,PressureIn,WindDirection,WindDirectionDegrees,WindSpeedMPH,WindSpeedGustMPH,Humidity,HourlyPrecipIn,Conditions,Clouds,dailyrainin,SolarRadiationWatts/m^2,SoftwareType,DateUTC
2013-03-31 00:00:00,41.0,34.0,30.12,West,278,0.0,0.0,76,0.00,,---,0.00,0.00,VWS V14.01,2013-03-31 04:00:00,
2013-03-31 00:05:00,41.2,35.5,30.12,West,278,2.0,2.0,80,0.00,,---,0.00,0.00,VWS V14.01,2013-03-31 04:05:00,
2013-03-31 00:10:00,41.1,35.7,30.12,West,278,0.0,2.0,81,0.00,,---,0.00,0.00,VWS V14.01,2013-03-31 04:10:00,
2013-03-31 00:15:00,41.0,35.9,30.13,South,179,2.0,5.0,82,0.00,,---,0.00,0.00,VWS V14.01,2013-03-31 04:15:00,
2013-03-31 00:20:00,40.8,35.7,30.13,South,184,3.0,5.0,82,0.00,,---,0.00,0.00,VWS V14.01,2013-03-31 04:20:00,
2013-03-31 00:25:00,40.8,36.0,30.13,SW,214,3.0,5.0,83,0.00,,---,0.00,0.00,VWS V14.01,2013-03-31 04:25:00,
2013-03-31 00:30:00,40.8,36.3,30.13,SW,220,3.0,5.0,84,0.00,,---,0.00,0.00,VWS V14.01,2013-03-31 04:30:00,
2013-03-31 00:35:00,40.9,36.5,30.13,SW,214,5.0,6.0,84,0.00,,---,0.00,0.00,VWS V14.01,2013-03-31 04:35:00,
2013-03-31 00:40:00,41.1,37.2,30.13,SW,223,8.0,10.0,86,0.00,,---,0.00,0.00,VWS V14.01,2013-03-31 04:40:00,
2013-03-31 00:45:00,41.1,36.0,30.13,WSW,243,7.0,10.0,82,0.00,,---,0.00,0.00,VWS V14.01,2013-03-31 04:45:00,
2013-03-31 00:50:00,41.3,35.6,30.13,WSW,248,6.0,7.0,80,0.00,,---,0.00,0.00,VWS V14.01,2013-03-31 04:50:00,
2013-03-31 00:55:00,41.3,35.3,30.13,West,261,6.0,8.0,79,0.00,,---,0.00,0.00,VWS V14.01,2013-03-31 04:55:00,
2013-03-31 01:00:00,41.3,34.7,30.14,West,269,4.0,8.0,77,0.00,,---,0.00,0.00,VWS V14.01,2013-03-31 05:00:00,
2013-03-31 01:05:00,41.3,34.7,30.14,West,267,3.0,4.0,77,0.00,,---,0.00,0.00,VWS V14.01,2013-03-31 05:05:00,
2013-03-31 01:10:00,41.3,35.0,30.14,WSW,238,5.0,7.0,78,0.00,,---,0.00,0.00,VWS V14.01,2013-03-31 05:10:00,
2013-03-31 01:15:00,41.2,34.5,30.14,West,269,4.0,7.0,77,0.00,,---,0.00,0.00,VWS V14.01,2013-03-31 05:15:00,
2013-03-31 01:20:00,41.1,34.1,30.14,West,278,5.0,5.0,76,0.00,,---,0.00,0.00,VWS V14.01,2013-03-31 05:20:00,
2013-03-31 01:25:00,41.0,33.4,30.14,West,274,4.0,6.0,74,0.00,,---,0.00,0.00,VWS V14.01,2013-03-31 05:25:00,
2013-03-31 01:30:00,40.9,33.3,30.14,West,273,3.0,6.0,74,0.00,,---,0.00,0.00,VWS V14.01,2013-03-31 05:30:00,
2013-03-31 01:35:00,40.9,33.3,30.14,West,262,4.0,4.0,74,0.00,,---,0.00,0.00,VWS V14.01,2013-03-31 05:35:00,
2013-03-31 01:40:00,40.8,33.2,30.14,West,274,4.0,5.0,74,0.00,,---,0.00,0.00,VWS V14.01,2013-03-31 05:40:00,
2013-03-31 01:45:00,40.9,33.3,30.14,West,278,3.0,5.0,74,0.00,,---,0.00,0.00,VWS V14.01,2013-03-31 05:45:00,
2013-03-31 01:50:00,41.0,33.0,30.14,West,277,3.0,4.0,73,0.00,,---,0.00,0.00,VWS V14.01,2013-03-31 05:50:00,
2013-03-31 01:55:00,41.1,33.1,30.14,West,264,4.0,5.0,73,0.00,,---,0.00,0.00,VWS V14.01,2013-03-31 05:55:00,
2013-03-31 02:00:00,41.1,33.1,30.14,West,269,5.0,6.0,73,0.00,,---,0.00,0.00,VWS V14.01,2013-03-31 06:00:00,
2013-03-31 02:05:00,41.3,31.5,30.13,West,268,4.0,7.0,68,0.00,,---,0.00,0.00,VWS V14.01,2013-03-31 06:05:00,
2013-03-31 02:10:00,41.5,31.7,30.13,West,264,4.0,7.0,68,0.00,,---,0.00,0.00,VWS V14.01,2013-03-31 06:10:00,
2013-03-31 02:15:00,41.5,32.8,30.13,West,259,4.0,7.0,71,0.00,,---,0.00,0.00,VWS V14.01,2013-03-31 06:15:00,
2013-03-31 02:20:00,41.5,32.5,30.13,WSW,257,4.0,5.0,70,0.00,,---,0.00,0.00,VWS V14.01,2013-03-31 06:20:00,
2013-03-31 02:25:00,41.5,32.5,30.13,West,263,5.0,5.0,70,0.00,,---,0.00,0.00,VWS V14.01,2013-03-31 06:25:00,
2013-03-31 02:30:00,41.5,33.2,30.13,West,267,4.0,5.0,72,0.00,,---,0.00,0.00,VWS V14.01,2013-03-31 06:30:00,
2013-03-31 02:35:00,41.3,32.6,30.13,West,279,3.0,5.0,71,0.00,,---,0.00,0.00,VWS V14.01,2013-03-31 06:35:00,
2013-03-31 02:40:00,41.2,32.5,30.13,West,279,2.0,5.0,71,0.00,,---,0.00,0.00,VWS V14.01,2013-03-31 06:40:00,
2013-03-31 02:45:00,41.0,32.3,30.13,West,279,3.0,5.0,71,0.00,,---,0.00,0.00,VWS V14.01,2013-03-31 06:45:00,
2013-03-31 02:50:00,40.9,32.9,30.13,West,279,3.0,3.0,73,0.00,,---,0.00,0.00,VWS V14.01,2013-03-31 06:50:00,
2013-03-31 02:55:00,40.7,32.7,30.13,West,279,3.0,4.0,73,0.00,,---,0.00,0.00,VWS V14.01,2013-03-31 06:55:00,
2013-03-31 03:00:00,40.7,32.7,30.13,West,277,3.0,4.0,73,0.00,,---,0.00,0.00,VWS V14.01,2013-03-31 07:00:00,
2013-03-31 03:05:00,40.5,31.5,30.12,West,281,3.0,4.0,70,0.00,,---,0.00,0.00,VWS V14.01,2013-03-31 07:05:00,
2013-03-31 03:10:00,40.5,31.5,30.12,West,281,2.0,4.0,70,0.00,,---,0.00,0.00,VWS V14.01,2013-03-31 07:10:00,
2013-03-31 03:15:00,40.5,30.8,30.12,WNW,282,2.0,4.0,68,0.00,,---,0.00,0.00,VWS V14.01,2013-03-31 07:15:00,
2013-03-31 03:20:00,40.3,29.9,30.13,WNW,282,0.0,3.0,66,0.00,,---,0.00,0.00,VWS V14.01,2013-03-31 07:20:00,
2013-03-31 03:25:00,40.0,29.2,30.13,NW,323,2.0,3.0,65,0.00,,---,0.00,0.00,VWS V14.01,2013-03-31 07:25:00,
2013-03-31 03:30:00,39.8,28.6,30.13,NW,323,0.0,3.0,64,0.00,,---,0.00,0.00,VWS V14.01,2013-03-31 07:30:00,
2013-03-31 03:35:00,39.9,28.3,30.13,NW,323,1.0,1.0,63,0.00,,---,0.00,0.00,VWS V14.01,2013-03-31 07:35:00,
2013-03-31 03:40:00,39.8,28.2,30.13,NW,323,1.0,2.0,63,0.00,,---,0.00,0.00,VWS V14.01,2013-03-31 07:40:00,
2013-03-31 03:45:00,39.7,28.9,30.13,NW,323,0.0,2.0,65,0.00,,---,0.00,0.00,VWS V14.01,2013-03-31 07:45:00,
2013-03-31 03:50:00,39.2,30.2,30.13,SE,137,5.0,7.0,70,0.00,,---,0.00,0.00,VWS V14.01,2013-03-31 07:50:00,
2013-03-31 03:55:00,39.3,32.4,30.13,SW,219,3.0,7.0,76,0.00,,---,0.00,0.00,VWS V14.01,2013-03-31 07:55:00,
2013-03-31 04:00:00,39.7,32.4,30.14,SW,227,5.0,7.0,75,0.00,,---,0.00,0.00,VWS V14.01,2013-03-31 08:00:00,
2013-03-31 04:05:00,40.1,32.8,30.13,West,264,3.0,5.0,75,0.00,,---,0.00,0.00,VWS V14.01,2013-03-31 08:05:00,
2013-03-31 04:10:00,40.1,32.8,30.13,WSW,238,3.0,5.0,75,0.00,,---,0.00,0.00,VWS V14.01,2013-03-31 08:10:00,
2013-03-31 04:15:00,40.2,31.2,30.13,WSW,254,3.0,5.0,70,0.00,,---,0.00,0.00,VWS V14.01,2013-03-31 08:15:00,
2013-03-31 04:20:00,40.2,31.6,30.13,WSW,257,2.0,3.0,71,0.00,,---,0.00,0.00,VWS V14.01,2013-03-31 08:20:00,
2013-03-31 04:25:00,40.2,31.9,30.13,WSW,257,2.0,3.0,72,0.00,,---,0.00,0.00,VWS V14.01,2013-03-31 08:25:00,
2013-03-31 04:30:00,40.2,32.9,30.14,South,173,2.0,5.0,75,0.00,,---,0.00,0.00,VWS V14.01,2013-03-31 08:30:00,
2013-03-31 04:36:00,39.8,32.9,30.14,SSE,159,0.0,4.0,76,0.00,,---,0.00,0.00,VWS V14.01,2013-03-31 08:36:00,
2013-03-31 04:41:00,39.7,33.4,30.14,SSE,159,2.0,4.0,78,0.00,,---,0.00,0.00,VWS V14.01,2013-03-31 08:41:00,
2013-03-31 04:45:00,39.8,33.8,30.14,SSE,160,2.0,4.0,79,0.00,,---,0.00,0.00,VWS V14.01,2013-03-31 08:45:00,
2013-03-31 04:51:00,39.8,34.5,30.14,SSE,163,4.0,4.0,81,0.00,,---,0.00,0.00,VWS V14.01,2013-03-31 08:51:00,
2013-03-31 04:56:00,39.9,34.5,30.14,SSE,163,4.0,4.0,81,0.00,,---,0.00,0.00,VWS V14.01,2013-03-31 08:56:00,
2013-03-31 05:00:00,39.7,32.4,30.14,SW,227,5.0,7.0,75,0.00,,,0.00,0.00,VWS V14.01,2013-03-31 09:00:00,
2013-03-31 05:01:00,39.8,34.5,30.14,SSE,164,1.0,4.0,81,0.00,,---,0.00,0.00,VWS V14.01,2013-03-31 09:01:00,
2013-03-31 05:06:00,39.8,34.5,30.14,SSE,164,1.0,2.0,81,0.00,,---,0.00,0.00,VWS V14.01,2013-03-31 09:06:00,
2013-03-31 05:11:00,39.8,34.5,30.14,SSW,198,3.0,4.0,81,0.00,,---,0.00,0.00,VWS V14.01,2013-03-31 09:11:00,
2013-03-31 05:16:00,39.8,34.1,30.14,SW,215,4.0,5.0,80,0.00,,---,0.00,0.00,VWS V14.01,2013-03-31 09:16:00,
2013-03-31 05:21:00,39.8,33.8,30.14,SW,226,4.0,5.0,79,0.00,,---,0.00,0.00,VWS V14.01,2013-03-31 09:21:00,
2013-03-31 05:26:00,39.9,33.6,30.14,SW,227,3.0,5.0,78,0.00,,---,0.00,0.00,VWS V14.01,2013-03-31 09:26:00,
2013-03-31 05:31:00,39.9,33.6,30.14,SW,227,2.0,5.0,78,0.00,,---,0.00,0.00,VWS V14.01,2013-03-31 09:31:00,
2013-03-31 05:36:00,39.7,33.1,30.14,SW,227,2.0,2.0,77,0.00,,---,0.00,0.00,VWS V14.01,2013-03-31 09:36:00,
2013-03-31 05:41:00,39.5,32.6,30.14,SW,227,0.0,2.0,76,0.00,,---,0.00,0.00,VWS V14.01,2013-03-31 09:41:00,
2013-03-31 05:45:00,39.8,33.8,30.14,SSE,160,2.0,4.0,79,0.00,,,0.00,0.00,VWS V14.01,2013-03-31 09:45:00,
2013-03-31 05:46:00,39.3,32.7,30.14,SW,227,2.0,2.0,77,0.00,,---,0.00,0.00,VWS V14.01,2013-03-31 09:46:00,
2013-03-31 05:51:00,39.4,33.4,30.14,SW,227,1.0,3.0,79,0.00,,---,0.00,0.00,VWS V14.01,2013-03-31 09:51:00,
2013-03-31 05:56:00,39.3,33.0,30.14,SW,227,0.0,3.0,78,0.00,,---,0.00,0.00,VWS V14.01,2013-03-31 09:56:00,
2013-03-31 06:00:00,39.9,34.5,30.14,SSE,164,2.0,4.0,81,0.00,,,0.00,0.00,VWS V14.01,2013-03-31 10:00:00,
2013-03-31 06:01:00,38.9,33.0,30.14,SW,223,2.0,3.0,79,0.00,,---,0.00,0.00,VWS V14.01,2013-03-31 10:01:00,
2013-03-31 06:06:00,38.9,33.9,30.14,SW,223,0.0,2.0,82,0.00,,---,0.00,0.00,VWS V14.01,2013-03-31 10:06:00,
2013-03-31 06:11:00,39.1,33.8,30.14,SW,223,2.0,2.0,81,0.00,,---,0.00,0.00,VWS V14.01,2013-03-31 10:11:00,
2013-03-31 06:16:00,39.3,34.0,30.14,South,175,2.0,2.0,81,0.00,,---,0.00,0.00,VWS V14.01,2013-03-31 10:16:00,
2013-03-31 06:21:00,39.3,34.6,30.14,South,175,4.0,4.0,83,0.00,,---,0.00,0.00,VWS V14.01,2013-03-31 10:21:00,
2013-03-31 06:26:00,39.4,35.0,30.14,South,175,2.0,4.0,84,0.00,,---,0.00,5.00,VWS V14.01,2013-03-31 10:26:00,
2013-03-31 06:31:00,39.4,35.0,30.14,South,175,2.0,4.0,84,0.00,,---,0.00,11.00,VWS V14.01,2013-03-31 10:31:00,
2013-03-31 06:36:00,39.6,35.5,30.14,South,172,5.0,5.0,85,0.00,,---,0.00,16.00,VWS V14.01,2013-03-31 10:36:00,
2013-03-31 06:41:00,39.8,36.0,30.14,South,175,4.0,6.0,86,0.00,,---,0.00,19.00,VWS V14.01,2013-03-31 10:41:00,
2013-03-31 06:46:00,40.1,36.8,30.15,SSE,167,5.0,6.0,88,0.00,,---,0.00,26.00,VWS V14.01,2013-03-31 10:46:00,
2013-03-31 06:51:00,40.4,37.4,30.15,South,180,5.0,6.0,89,0.00,,---,0.00,33.00,VWS V14.01,2013-03-31 10:51:00,
2013-03-31 06:56:00,40.5,37.5,30.15,South,178,6.0,6.0,89,0.00,,---,0.00,47.00,VWS V14.01,2013-03-31 10:56:00,
2013-03-31 07:00:00,38.9,33.0,30.14,SW,223,2.0,3.0,79,0.00,,,0.00,0.00,VWS V14.01,2013-03-31 11:00:00,
2013-03-31 07:01:00,40.7,38.0,30.15,SSW,199,4.0,5.0,90,0.00,,---,0.00,63.00,VWS V14.01,2013-03-31 11:01:00,
2013-03-31 07:06:00,40.8,38.1,30.15,SSW,194,5.0,6.0,90,0.00,,---,0.00,74.00,VWS V14.01,2013-03-31 11:06:00,
2013-03-31 07:11:00,40.9,38.2,30.16,SSW,209,5.0,6.0,90,0.00,,---,0.00,83.00,VWS V14.01,2013-03-31 11:11:00,
2013-03-31 07:17:00,41.0,38.3,30.16,SSW,211,5.0,5.0,90,0.00,,---,0.00,93.00,VWS V14.01,2013-03-31 11:17:00,
2013-03-31 07:22:00,41.0,38.3,30.16,SW,225,3.0,5.0,90,0.00,,---,0.00,109.00,VWS V14.01,2013-03-31 11:22:00,
2013-03-31 07:27:00,41.0,38.0,30.16,SW,229,3.0,5.0,89,0.00,,---,0.00,127.00,VWS V14.01,2013-03-31 11:27:00,
2013-03-31 07:30:00,39.4,35.0,30.14,South,175,2.0,5.0,84,0.00,,,0.00,11.00,VWS V14.01,2013-03-31 11:30:00,
2013-03-31 07:32:00,41.1,37.8,30.15,SW,228,3.0,4.0,88,0.00,,---,0.00,151.00,VWS V14.01,2013-03-31 11:32:00,
2013-03-31 07:37:00,41.2,37.9,30.15,SW,229,4.0,4.0,88,0.00,,---,0.00,174.00,VWS V14.01,2013-03-31 11:37:00,
2013-03-31 07:42:00,41.2,37.9,30.15,SW,229,3.0,4.0,88,0.00,,---,0.00,174.00,VWS V14.01,2013-03-31 11:42:00,
2013-03-31 07:47:00,41.5,38.2,30.15,SSW,208,5.0,5.0,88,0.00,,---,0.00,225.00,VWS V14.01,2013-03-31 11:47:00,
2013-03-31 07:52:00,41.6,38.3,30.15,SSW,205,3.0,7.0,88,0.00,,---,0.00,243.00,VWS V14.01,2013-03-31 11:52:00,
2013-03-31 07:57:00,41.7,38.7,30.15,SSW,207,4.0,7.0,89,0.00,,---,0.00,258.00,VWS V14.01,2013-03-31 11:57:00,
2013-03-31 08:00:00,40.7,38.0,30.15,SSW,193,5.0,6.0,90,0.00,,,0.00,60.00,VWS V14.01,2013-03-31 12:00:00,
2013-03-31 08:02:00,41.8,38.8,30.16,South,186,4.0,5.0,89,0.00,,---,0.00,283.00,VWS V14.01,2013-03-31 12:02:00,
2013-03-31 08:07:00,41.7,38.7,30.16,SSW,200,4.0,5.0,89,0.00,,---,0.00,301.00,VWS V14.01,2013-03-31 12:07:00,
2013-03-31 08:12:00,41.7,38.7,30.15,South,178,5.0,5.0,89,0.00,,---,0.00,320.00,VWS V14.01,2013-03-31 12:12:00,
2013-03-31 08:15:00,41.0,38.3,30.16,SW,214,5.0,6.0,90,0.00,,,0.00,90.00,VWS V14.01,2013-03-31 12:15:00,
2013-03-31 08:17:00,41.8,38.8,30.15,South,184,2.0,3.0,89,0.00,,---,0.00,353.00,VWS V14.01,2013-03-31 12:17:00,
2013-03-31 08:22:00,41.9,38.9,30.15,South,184,2.0,3.0,89,0.00,,---,0.00,360.00,VWS V14.01,2013-03-31 12:22:00,
2013-03-31 08:27:00,42.1,39.1,30.15,South,181,2.0,3.0,89,0.00,,---,0.00,376.00,VWS V14.01,2013-03-31 12:27:00,
2013-03-31 08:32:00,42.2,39.2,30.15,South,175,4.0,6.0,89,0.00,,---,0.00,392.00,VWS V14.01,2013-03-31 12:32:00,
2013-03-31 08:37:00,42.3,39.3,30.14,SSE,150,2.0,6.0,89,0.00,,---,0.00,418.00,VWS V14.01,2013-03-31 12:37:00,
2013-03-31 08:42:00,42.5,39.5,30.14,SE,146,2.0,6.0,89,0.00,,---,0.00,374.00,VWS V14.01,2013-03-31 12:42:00,
2013-03-31 08:47:00,42.8,39.8,30.14,SE,146,2.0,2.0,89,0.00,,---,0.00,427.00,VWS V14.01,2013-03-31 12:47:00,
2013-03-31 08:52:00,43.3,40.0,30.14,SE,146,0.0,4.0,88,0.00,,---,0.00,434.00,VWS V14.01,2013-03-31 12:52:00,
2013-03-31 08:57:00,43.9,40.3,30.14,SE,146,1.0,4.0,87,0.00,,---,0.00,473.00,VWS V14.01,2013-03-31 12:57:00,
2013-03-31 09:02:00,44.4,40.2,30.14,South,171,2.0,4.0,85,0.00,,---,0.00,510.00,VWS V14.01,2013-03-31 13:02:00,
2013-03-31 09:07:00,44.6,39.8,30.13,SSE,165,1.0,4.0,83,0.00,,---,0.00,529.00,VWS V14.01,2013-03-31 13:07:00,
2013-03-31 09:12:00,44.6,39.8,30.14,SSE,161,4.0,5.0,83,0.00,,---,0.00,534.00,VWS V14.01,2013-03-31 13:12:00,
2013-03-31 09:18:00,44.5,39.7,30.14,South,169,4.0,5.0,83,0.00,,---,0.00,526.00,VWS V14.01,2013-03-31 13:18:00,
2013-03-31 09:23:00,44.1,39.3,30.13,South,175,6.0,6.0,83,0.00,,---,0.00,557.00,VWS V14.01,2013-03-31 13:23:00,
2013-03-31 09:28:00,43.8,39.3,30.14,South,182,3.0,6.0,84,0.00,,---,0.00,589.00,VWS V14.01,2013-03-31 13:28:00,
2013-03-31 09:33:00,43.7,39.2,30.14,SSW,194,4.0,5.0,84,0.00,,---,0.00,508.00,VWS V14.01,2013-03-31 13:33:00,
2013-03-31 09:38:00,43.5,39.0,30.14,SSW,195,5.0,6.0,84,0.00,,---,0.00,557.00,VWS V14.01,2013-03-31 13:38:00,
2013-03-31 09:43:00,43.4,39.2,30.14,SSW,195,6.0,7.0,85,0.00,,---,0.00,603.00,VWS V14.01,2013-03-31 13:43:00,
2013-03-31 09:48:00,43.4,39.2,30.14,SSW,192,7.0,7.0,85,0.00,,---,0.00,554.00,VWS V14.01,2013-03-31 13:48:00,
2013-03-31 09:53:00,43.1,39.2,30.14,South,188,7.0,10.0,86,0.00,,---,0.00,547.00,VWS V14.01,2013-03-31 13:53:00,
2013-03-31 09:58:00,42.9,39.3,30.14,SSW,199,10.0,11.0,87,0.00,,---,0.00,557.00,VWS V14.01,2013-03-31 13:58:00,
2013-03-31 10:00:00,44.2,40.0,30.14,SSW,196,3.0,4.0,85,0.00,,,0.00,499.00,VWS V14.01,2013-03-31 14:00:00,
2013-03-31 10:03:00,42.5,38.9,30.14,SSW,200,11.0,11.0,87,0.00,,---,0.00,582.00,VWS V14.01,2013-03-31 14:03:00,
2013-03-31 10:08:00,42.3,39.0,30.14,SSW,198,8.0,11.0,88,0.00,,---,0.00,613.00,VWS V14.01,2013-03-31 14:08:00,
2013-03-31 10:13:00,42.4,39.4,30.14,SSW,194,10.0,11.0,89,0.00,,---,0.00,643.00,VWS V14.01,2013-03-31 14:13:00,
2013-03-31 10:18:00,42.5,39.2,30.14,South,189,8.0,9.0,88,0.00,,---,0.00,663.00,VWS V14.01,2013-03-31 14:18:00,
2013-03-31 10:23:00,42.7,39.4,30.14,SSW,199,10.0,10.0,88,0.00,,---,0.00,652.00,VWS V14.01,2013-03-31 14:23:00,
2013-03-31 10:28:00,42.9,39.6,30.14,SSW,195,8.0,10.0,88,0.00,,---,0.00,689.00,VWS V14.01,2013-03-31 14:28:00,
2013-03-31 10:30:00,43.7,39.2,30.13,South,182,4.0,6.0,84,0.00,,,0.00,547.00,VWS V14.01,2013-03-31 14:30:00,
2013-03-31 10:33:00,43.0,39.4,30.14,SSW,195,7.0,9.0,87,0.00,,---,0.00,679.00,VWS V14.01,2013-03-31 14:33:00,
2013-03-31 10:38:00,43.1,39.5,30.14,South,188,5.0,9.0,87,0.00,,---,0.00,705.00,VWS V14.01,2013-03-31 14:38:00,
2013-03-31 10:43:00,43.3,40.0,30.14,SSW,192,6.0,9.0,88,0.00,,---,0.00,710.00,VWS V14.01,2013-03-31 14:43:00,
2013-03-31 10:45:00,43.4,39.2,30.14,SSW,194,7.0,7.0,85,0.00,,,0.00,555.00,VWS V14.01,2013-03-31 14:45:00,
2013-03-31 10:48:00,43.4,40.1,30.14,SSW,193,6.0,6.0,88,0.00,,---,0.00,689.00,VWS V14.01,2013-03-31 14:48:00,
2013-03-31 10:53:00,43.3,39.7,30.14,SSW,197,7.0,8.0,87,0.00,,---,0.00,687.00,VWS V14.01,2013-03-31 14:53:00,
2013-03-31 10:58:00,43.2,39.9,30.14,SSW,206,5.0,8.0,88,0.00,,---,0.00,707.00,VWS V14.01,2013-03-31 14:58:00,
2013-03-31 11:00:00,42.7,39.1,30.14,SSW,202,10.0,11.0,87,0.00,,,0.00,559.00,VWS V14.01,2013-03-31 15:00:00,
2013-03-31 11:03:00,43.0,39.7,30.14,SSW,205,6.0,7.0,88,0.00,,---,0.00,663.00,VWS V14.01,2013-03-31 15:03:00,
2013-03-31 11:08:00,42.9,39.6,30.14,SSW,200,6.0,7.0,88,0.00,,---,0.00,677.00,VWS V14.01,2013-03-31 15:08:00,
2013-03-31 11:13:00,43.1,40.1,30.14,SSW,202,4.0,7.0,89,0.00,,---,0.00,712.00,VWS V14.01,2013-03-31 15:13:00,
2013-03-31 11:18:00,43.1,40.1,30.14,SSW,206,2.0,5.0,89,0.00,,---,0.00,740.00,VWS V14.01,2013-03-31 15:18:00,
2013-03-31 11:23:00,43.4,40.1,30.14,SSW,201,3.0,5.0,88,0.00,,---,0.00,533.00,VWS V14.01,2013-03-31 15:23:00,
2013-03-31 11:29:00,43.6,40.3,30.14,SSW,203,3.0,5.0,88,0.00,,---,0.00,675.00,VWS V14.01,2013-03-31 15:29:00,
2013-03-31 11:34:00,43.7,40.1,30.13,South,190,6.0,6.0,87,0.00,,---,0.00,705.00,VWS V14.01,2013-03-31 15:34:00,
2013-03-31 11:39:00,43.9,40.6,30.13,SSW,196,7.0,7.0,88,0.00,,---,0.00,707.00,VWS V14.01,2013-03-31 15:39:00,
2013-03-31 11:44:00,43.6,40.0,30.13,SSW,207,6.0,9.0,87,0.00,,---,0.00,659.00,VWS V14.01,2013-03-31 15:44:00,
2013-03-31 11:49:00,43.3,40.0,30.13,SSW,196,10.0,11.0,88,0.00,,---,0.00,698.00,VWS V14.01,2013-03-31 15:49:00,
2013-03-31 11:54:00,43.4,40.1,30.13,SSW,199,9.0,12.0,88,0.00,,---,0.00,766.00,VWS V14.01,2013-03-31 15:54:00,
2013-03-31 11:59:00,43.4,40.1,30.13,SSW,196,10.0,12.0,88,0.00,,---,0.00,763.00,VWS V14.01,2013-03-31 15:59:00,
2013-03-31 12:04:00,43.3,40.0,30.13,SSW,192,12.0,14.0,88,0.00,,---,0.00,786.00,VWS V14.01,2013-03-31 16:04:00,
2013-03-31 12:09:00,43.4,40.1,30.13,SSW,194,11.0,14.0,88,0.00,,---,0.00,796.00,VWS V14.01,2013-03-31 16:09:00,
2013-03-31 12:14:00,43.3,40.0,30.12,SSW,201,11.0,14.0,88,0.00,,---,0.00,687.00,VWS V14.01,2013-03-31 16:14:00,
2013-03-31 12:15:00,43.1,40.1,30.14,SSW,204,4.0,7.0,89,0.00,,,0.00,724.00,VWS V14.01,2013-03-31 16:15:00,
2013-03-31 12:19:00,43.3,40.0,30.12,SSW,200,9.0,12.0,88,0.00,,---,0.00,810.00,VWS V14.01,2013-03-31 16:19:00,
2013-03-31 12:24:00,43.5,39.9,30.12,SSW,194,12.0,12.0,87,0.00,,---,0.00,803.00,VWS V14.01,2013-03-31 16:24:00,
2013-03-31 12:29:00,43.5,39.9,30.12,SSW,196,12.0,15.0,87,0.00,,---,0.00,784.00,VWS V14.01,2013-03-31 16:29:00,
2013-03-31 12:34:00,43.7,40.1,30.12,SSW,192,10.0,13.0,87,0.00,,---,0.00,803.00,VWS V14.01,2013-03-31 16:34:00,
2013-03-31 12:39:00,43.8,40.2,30.12,South,184,12.0,13.0,87,0.00,,---,0.00,708.00,VWS V14.01,2013-03-31 16:39:00,
2013-03-31 12:44:00,43.9,40.0,30.11,South,190,13.0,15.0,86,0.00,,---,0.00,761.00,VWS V14.01,2013-03-31 16:44:00,
2013-03-31 12:45:00,43.4,40.1,30.13,SSW,201,9.0,10.0,88,0.00,,,0.00,766.00,VWS V14.01,2013-03-31 16:45:00,
2013-03-31 12:49:00,43.9,39.7,30.11,SSW,199,15.0,16.0,85,0.00,,---,0.00,742.00,VWS V14.01,2013-03-31 16:49:00,
2013-03-31 12:54:00,43.8,39.6,30.11,SSW,194,12.0,16.0,85,0.00,,---,0.00,710.00,VWS V14.01,2013-03-31 16:54:00,
2013-03-31 12:59:00,43.8,39.6,30.11,South,191,12.0,16.0,85,0.00,,---,0.00,744.00,VWS V14.01,2013-03-31 16:59:00,
2013-03-31 13:00:00,43.4,40.1,30.13,SSW,201,12.0,13.0,88,0.00,,,0.00,791.00,VWS V14.01,2013-03-31 17:00:00,
2013-03-31 13:04:00,43.8,39.6,30.11,South,185,11.0,13.0,85,0.00,,---,0.00,671.00,VWS V14.01,2013-03-31 17:04:00,
2013-03-31 13:09:00,43.8,39.6,30.11,South,188,11.0,13.0,85,0.00,,---,0.00,671.00,VWS V14.01,2013-03-31 17:09:00,
2013-03-31 13:14:00,43.7,39.8,30.11,SSW,197,12.0,13.0,86,0.00,,---,0.00,649.00,VWS V14.01,2013-03-31 17:14:00,
2013-03-31 13:15:00,43.3,40.0,30.12,SSW,198,12.0,14.0,88,0.00,,,0.00,772.00,VWS V14.01,2013-03-31 17:15:00,
2013-03-31 13:19:00,43.6,39.7,30.10,SSW,197,13.0,13.0,86,0.00,,---,0.00,606.00,VWS V14.01,2013-03-31 17:19:00,
2013-03-31 13:24:00,43.6,39.4,30.10,SSW,198,14.0,14.0,85,0.00,,---,0.00,626.00,VWS V14.01,2013-03-31 17:24:00,
2013-03-31 13:29:00,43.4,39.2,30.10,SSW,198,11.0,14.0,85,0.00,,---,0.00,577.00,VWS V14.01,2013-03-31 17:29:00,
2013-03-31 13:34:00,43.4,39.5,30.10,SSW,194,12.0,14.0,86,0.00,,---,0.00,599.00,VWS V14.01,2013-03-31 17:34:00,
2013-03-31 13:39:00,43.4,39.5,30.10,SSW,194,12.0,14.0,86,0.00,,---,0.00,485.00,VWS V14.01,2013-03-31 17:39:00,
2013-03-31 13:44:00,43.4,39.5,30.09,SSW,195,11.0,14.0,86,0.00,,---,0.00,540.00,VWS V14.01,2013-03-31 17:44:00,
2013-03-31 13:49:00,43.4,39.5,30.09,South,190,11.0,13.0,86,0.00,,---,0.00,512.00,VWS V14.01,2013-03-31 17:49:00,
2013-03-31 13:54:00,43.4,39.5,30.09,SSW,195,12.0,13.0,86,0.00,,---,0.00,425.00,VWS V14.01,2013-03-31 17:54:00,
2013-03-31 13:59:00,43.4,39.8,30.09,SSW,193,11.0,13.0,87,0.00,,---,0.00,425.00,VWS V14.01,2013-03-31 17:59:00,
2013-03-31 14:00:00,43.8,39.6,30.11,SSW,196,12.0,16.0,85,0.00,,,0.00,744.00,VWS V14.01,2013-03-31 18:00:00,
2013-03-31 14:04:00,43.3,39.7,30.09,SSW,196,10.0,13.0,87,0.00,,---,0.00,396.00,VWS V14.01,2013-03-31 18:04:00,
2013-03-31 14:09:00,43.3,39.7,30.09,SSW,192,10.0,13.0,87,0.00,,---,0.00,418.00,VWS V14.01,2013-03-31 18:09:00,
2013-03-31 14:14:00,43.4,39.8,30.08,South,189,11.0,13.0,87,0.00,,---,0.00,534.00,VWS V14.01,2013-03-31 18:14:00,
2013-03-31 14:15:00,43.7,39.8,30.11,SSW,201,13.0,13.0,86,0.00,,,0.00,636.00,VWS V14.01,2013-03-31 18:15:00,
2013-03-31 14:19:00,43.6,40.0,30.08,South,189,11.0,12.0,87,0.00,,---,0.00,578.00,VWS V14.01,2013-03-31 18:19:00,
2013-03-31 14:24:00,43.7,40.1,30.08,SSW,196,11.0,14.0,87,0.00,,---,0.00,552.00,VWS V14.01,2013-03-31 18:24:00,
2013-03-31 14:29:00,43.8,39.9,30.08,South,191,11.0,14.0,86,0.00,,---,0.00,512.00,VWS V14.01,2013-03-31 18:29:00,
2013-03-31 14:30:00,43.4,39.5,30.10,SSW,198,12.0,15.0,86,0.00,,,0.00,592.00,VWS V14.01,2013-03-31 18:30:00,
2013-03-31 14:34:00,43.7,39.8,30.08,South,188,14.0,14.0,86,0.00,,---,0.00,512.00,VWS V14.01,2013-03-31 18:34:00,
2013-03-31 14:39:00,43.7,39.8,30.08,South,189,13.0,15.0,86,0.00,,---,0.00,490.00,VWS V14.01,2013-03-31 18:39:00,
2013-03-31 14:45:00,43.6,40.0,30.08,SSW,200,14.0,15.0,87,0.00,,---,0.00,459.00,VWS V14.01,2013-03-31 18:45:00,
2013-03-31 14:50:00,43.5,39.9,30.08,SSW,202,12.0,15.0,87,0.00,,---,0.00,452.00,VWS V14.01,2013-03-31 18:50:00,
2013-03-31 14:55:00,43.6,40.0,30.08,SSW,196,13.0,15.0,87,0.00,,---,0.00,439.00,VWS V14.01,2013-03-31 18:55:00,
2013-03-31 15:00:00,43.8,40.2,30.07,SSW,192,14.0,15.0,87,0.00,,---,0.00,390.00,VWS V14.01,2013-03-31 19:00:00,
2013-03-31 15:05:00,43.9,40.3,30.07,SSW,209,11.0,13.0,87,0.00,,---,0.00,408.00,VWS V14.01,2013-03-31 19:05:00,
2013-03-31 15:10:00,43.8,40.5,30.07,SSW,209,7.0,13.0,88,0.00,,---,0.00,364.00,VWS V14.01,2013-03-31 19:10:00,
2013-03-31 15:15:00,43.8,40.5,30.07,SW,221,8.0,13.0,88,0.00,,---,0.00,352.00,VWS V14.01,2013-03-31 19:15:00,
2013-03-31 15:20:00,43.9,40.6,30.07,SW,226,6.0,7.0,88,0.00,,---,0.00,322.00,VWS V14.01,2013-03-31 19:20:00,
2013-03-31 15:25:00,43.9,40.6,30.06,SW,229,5.0,8.0,88,0.00,,---,0.00,330.00,VWS V14.01,2013-03-31 19:25:00,
2013-03-31 15:30:00,44.0,40.7,30.06,SW,228,4.0,8.0,88,0.00,,---,0.00,348.00,VWS V14.01,2013-03-31 19:30:00,
2013-03-31 15:35:00,44.1,40.8,30.06,SSW,207,6.0,7.0,88,0.00,,---,0.00,334.00,VWS V14.01,2013-03-31 19:35:00,
2013-03-31 15:40:00,44.0,40.7,30.05,SSW,202,7.0,8.0,88,0.00,,---,0.00,336.00,VWS V14.01,2013-03-31 19:40:00,
2013-03-31 15:45:00,44.0,40.7,30.05,SSW,195,8.0,8.0,88,0.00,,---,0.00,276.00,VWS V14.01,2013-03-31 19:45:00,
2013-03-31 15:50:00,43.9,40.6,30.05,SSW,209,7.0,8.0,88,0.00,,---,0.00,262.00,VWS V14.01,2013-03-31 19:50:00,
2013-03-31 15:55:00,43.9,40.6,30.05,SW,228,5.0,8.0,88,0.00,,---,0.00,269.00,VWS V14.01,2013-03-31 19:55:00,
2013-03-31 16:00:00,44.0,40.7,30.05,WSW,252,3.0,8.0,88,0.00,,---,0.00,229.00,VWS V14.01,2013-03-31 20:00:00,
2013-03-31 16:05:00,44.1,40.8,30.05,WSW,243,4.0,4.0,88,0.00,,---,0.00,227.00,VWS V14.01,2013-03-31 20:05:00,
2013-03-31 16:10:00,44.1,40.8,30.05,WSW,243,5.0,5.0,88,0.00,,---,0.00,253.00,VWS V14.01,2013-03-31 20:10:00,
2013-03-31 16:15:00,44.1,40.8,30.05,SW,236,3.0,5.0,88,0.00,,---,0.00,279.00,VWS V14.01,2013-03-31 20:15:00,
2013-03-31 16:20:00,44.2,40.9,30.05,SSW,201,5.0,5.0,88,0.00,,---,0.00,218.00,VWS V14.01,2013-03-31 20:20:00,
2013-03-31 16:25:00,44.2,40.6,30.04,South,190,6.0,7.0,87,0.00,,---,0.00,193.00,VWS V14.01,2013-03-31 20:25:00,
2013-03-31 16:30:00,44.4,40.5,30.04,South,182,7.0,8.0,86,0.00,,---,0.00,214.00,VWS V14.01,2013-03-31 20:30:00,
2013-03-31 16:35:00,44.6,40.7,30.04,SSE,166,6.0,9.0,86,0.00,,---,0.00,265.00,VWS V14.01,2013-03-31 20:35:00,
2013-03-31 16:40:00,44.6,40.7,30.04,SSE,158,6.0,9.0,86,0.00,,---,0.00,227.00,VWS V14.01,2013-03-31 20:40:00,
2013-03-31 16:45:00,44.8,41.2,30.03,SSE,153,5.0,9.0,87,0.00,,---,0.00,188.00,VWS V14.01,2013-03-31 20:45:00,
2013-03-31 16:50:00,44.8,41.2,30.03,SSE,155,7.0,8.0,87,0.00,,---,0.00,155.00,VWS V14.01,2013-03-31 20:50:00,
2013-03-31 16:55:00,44.7,41.1,30.03,SSE,155,6.0,8.0,87,0.00,,---,0.00,121.00,VWS V14.01,2013-03-31 20:55:00,
2013-03-31 17:00:00,44.5,40.9,30.03,SSE,153,8.0,8.0,87,0.00,,---,0.00,120.00,VWS V14.01,2013-03-31 21:00:00,
2013-03-31 17:05:00,44.4,41.1,30.03,SSE,150,8.0,8.0,88,0.00,,---,0.00,123.00,VWS V14.01,2013-03-31 21:05:00,
2013-03-31 17:10:00,44.3,41.0,30.03,SSE,163,8.0,10.0,88,0.00,,---,0.00,109.00,VWS V14.01,2013-03-31 21:10:00,
2013-03-31 17:15:00,44.3,41.0,30.03,SSE,159,9.0,10.0,88,0.00,,---,0.00,98.00,VWS V14.01,2013-03-31 21:15:00,
2013-03-31 17:20:00,44.4,40.8,30.03,SSE,161,11.0,11.0,87,0.00,,---,0.00,90.00,VWS V14.01,2013-03-31 21:20:00,
2013-03-31 17:25:00,44.6,40.7,30.02,SSE,164,10.0,12.0,86,0.00,,---,0.00,83.00,VWS V14.01,2013-03-31 21:25:00,
2013-03-31 17:30:00,45.0,40.8,30.02,SSE,159,10.0,12.0,85,0.00,,---,0.00,62.00,VWS V14.01,2013-03-31 21:30:00,
2013-03-31 17:35:00,45.0,40.5,30.02,SSE,157,9.0,11.0,84,0.00,,---,0.00,51.00,VWS V14.01,2013-03-31 21:35:00,
2013-03-31 17:40:00,44.9,40.7,30.02,SSE,159,9.0,11.0,85,0.00,,---,0.00,44.00,VWS V14.01,2013-03-31 21:40:00,
2013-03-31 17:45:00,44.7,40.8,30.02,SSE,152,8.0,11.0,86,0.00,,---,0.00,42.00,VWS V14.01,2013-03-31 21:45:00,
2013-03-31 17:50:00,44.5,40.6,30.02,SE,143,10.0,10.0,86,0.00,,---,0.00,28.00,VWS V14.01,2013-03-31 21:50:00,
2013-03-31 17:55:00,44.5,40.6,30.02,SSE,148,12.0,12.0,86,0.00,,---,0.00,30.00,VWS V14.01,2013-03-31 21:55:00,
2013-03-31 18:00:00,44.6,41.0,30.02,SE,145,11.0,13.0,87,0.00,,---,0.00,30.00,VWS V14.01,2013-03-31 22:00:00,
2013-03-31 18:05:00,44.7,41.1,30.02,SE,138,10.0,13.0,87,0.00,,---,0.00,30.00,VWS V14.01,2013-03-31 22:05:00,
2013-03-31 18:10:00,44.8,40.9,30.01,SE,136,12.0,14.0,86,0.00,,---,0.00,21.00,VWS V14.01,2013-03-31 22:10:00,
2013-03-31 18:15:00,44.9,41.0,30.01,SE,135,10.0,14.0,86,0.00,,---,0.00,18.00,VWS V14.01,2013-03-31 22:15:00,
2013-03-31 18:20:00,44.9,40.7,30.01,SE,134,9.0,12.0,85,0.00,,---,0.00,18.00,VWS V14.01,2013-03-31 22:20:00,
2013-03-31 18:25:00,44.9,40.7,30.01,SE,124,11.0,12.0,85,0.00,,---,0.00,14.00,VWS V14.01,2013-03-31 22:25:00,
2013-03-31 18:30:00,44.9,41.0,30.01,SE,126,9.0,12.0,86,0.00,,---,0.00,11.00,VWS V14.01,2013-03-31 22:30:00,
2013-03-31 18:35:00,44.8,40.9,30.01,ESE,121,9.0,11.0,86,0.00,,---,0.00,9.00,VWS V14.01,2013-03-31 22:35:00,
2013-03-31 18:40:00,44.8,40.9,30.00,ESE,108,8.0,11.0,86,0.00,,---,0.00,7.00,VWS V14.01,2013-03-31 22:40:00,
2013-03-31 18:45:00,44.9,40.7,30.00,ESE,111,12.0,12.0,85,0.00,,---,0.00,5.00,VWS V14.01,2013-03-31 22:45:00,
2013-03-31 18:50:00,45.0,40.5,30.00,ESE,113,8.0,11.0,84,0.00,,---,0.00,5.00,VWS V14.01,2013-03-31 22:50:00,
2013-03-31 18:55:00,45.1,40.6,30.00,ESE,120,11.0,12.0,84,0.00,,---,0.00,0.00,VWS V14.01,2013-03-31 22:55:00,
2013-03-31 19:00:00,45.3,40.8,30.00,ESE,123,11.0,14.0,84,0.00,,---,0.00,5.00,VWS V14.01,2013-03-31 23:00:00,
2013-03-31 19:05:00,45.4,40.9,30.00,ESE,120,12.0,13.0,84,0.00,,---,0.00,0.00,VWS V14.01,2013-03-31 23:05:00,
2013-03-31 19:10:00,45.4,40.5,30.00,SE,126,12.0,13.0,83,0.00,,---,0.00,0.00,VWS V14.01,2013-03-31 23:10:00,
2013-03-31 19:15:00,45.6,40.4,29.99,ESE,116,9.0,14.0,82,0.00,,---,0.00,0.00,VWS V14.01,2013-03-31 23:15:00,
2013-03-31 19:20:00,45.7,39.9,29.99,SE,138,13.0,15.0,80,0.00,,---,0.00,0.00,VWS V14.01,2013-03-31 23:20:00,
2013-03-31 19:25:00,45.9,39.1,29.99,SE,140,14.0,17.0,77,0.00,,---,0.00,0.00,VWS V14.01,2013-03-31 23:25:00,
2013-03-31 19:30:00,46.0,38.9,29.99,SE,135,17.0,18.0,76,0.00,,---,0.00,0.00,VWS V14.01,2013-03-31 23:30:00,
2013-03-31 19:35:00,46.1,38.6,29.99,SE,144,13.0,17.0,75,0.00,,---,0.00,0.00,VWS V14.01,2013-03-31 23:35:00,
2013-03-31 19:40:00,46.1,38.6,29.99,SE,144,13.0,18.0,75,0.00,,---,0.00,0.00,VWS V14.01,2013-03-31 23:40:00,
2013-03-31 19:45:00,46.1,38.6,29.98,SE,142,15.0,18.0,75,0.00,,---,0.00,0.00,VWS V14.01,2013-03-31 23:45:00,
2013-03-31 19:50:00,46.0,38.2,29.98,SE,128,17.0,19.0,74,0.00,,---,0.00,0.00,VWS V14.01,2013-03-31 23:50:00,
2013-03-31 19:55:00,46.1,38.3,29.97,SE,124,17.0,19.0,74,0.00,,---,0.00,0.00,VWS V14.01,2013-03-31 23:55:00,
2013-03-31 20:00:00,46.1,38.3,29.96,ESE,120,16.0,19.0,74,0.00,,---,0.00,0.00,VWS V14.01,2013-04-01 00:00:00,
2013-03-31 20:05:00,46.2,38.4,29.97,SE,133,15.0,19.0,74,0.00,,---,0.00,0.00,VWS V14.01,2013-04-01 00:05:00,
2013-03-31 20:10:00,46.2,38.7,29.96,ESE,119,15.0,19.0,75,0.00,,---,0.00,0.00,VWS V14.01,2013-04-01 00:10:00,
2013-03-31 20:15:00,46.1,38.6,29.96,ESE,122,15.0,19.0,75,0.00,,---,0.00,0.00,VWS V14.01,2013-04-01 00:15:00,
2013-03-31 20:20:00,46.2,38.7,29.96,ESE,123,17.0,18.0,75,0.00,,---,0.00,0.00,VWS V14.01,2013-04-01 00:20:00,
2013-03-31 20:25:00,46.3,38.5,29.95,SE,136,19.0,23.0,74,0.00,,---,0.00,0.00,VWS V14.01,2013-04-01 00:25:00,
2013-03-31 20:30:00,46.6,38.4,29.95,SE,126,21.0,23.0,73,0.00,,---,0.00,0.00,VWS V14.01,2013-04-01 00:30:00,
2013-03-31 20:35:00,46.8,38.3,29.95,SE,136,20.0,22.0,72,0.00,,---,0.00,0.00,VWS V14.01,2013-04-01 00:35:00,
2013-03-31 20:40:00,46.8,38.6,29.94,SE,126,17.0,24.0,73,0.00,,---,0.00,0.00,VWS V14.01,2013-04-01 00:40:00,
2013-03-31 20:45:00,46.8,38.6,29.93,SE,125,23.0,25.0,73,0.00,,---,0.00,0.00,VWS V14.01,2013-04-01 00:45:00,
2013-03-31 20:50:00,46.9,38.7,29.93,SE,133,21.0,24.0,73,0.00,,---,0.00,0.00,VWS V14.01,2013-04-01 00:50:00,
2013-03-31 20:55:00,46.9,38.4,29.93,ESE,109,19.0,24.0,72,0.00,,---,0.00,0.00,VWS V14.01,2013-04-01 00:55:00,
2013-03-31 21:00:00,47.0,38.5,29.93,ESE,121,21.0,24.0,72,0.00,,---,0.00,0.00,VWS V14.01,2013-04-01 01:00:00,
2013-03-31 21:05:00,47.1,38.9,29.93,SE,142,19.0,26.0,73,0.00,,---,0.00,0.00,VWS V14.01,2013-04-01 01:05:00,
2013-03-31 21:10:00,47.3,39.1,29.93,SE,126,22.0,26.0,73,0.00,,---,0.00,0.00,VWS V14.01,2013-04-01 01:10:00,
2013-03-31 21:15:00,47.3,39.1,29.93,SE,127,22.0,26.0,73,0.00,,---,0.00,0.00,VWS V14.01,2013-04-01 01:15:00,
2013-03-31 21:20:00,47.3,39.1,29.92,SE,126,21.0,25.0,73,0.00,,---,0.00,0.00,VWS V14.01,2013-04-01 01:20:00,
2013-03-31 21:25:00,47.2,39.3,29.92,ESE,118,24.0,25.0,74,0.00,,---,0.00,0.00,VWS V14.01,2013-04-01 01:25:00,
2013-03-31 21:30:00,46.6,38.4,29.95,SE,133,21.0,23.0,73,0.00,,,0.00,0.00,VWS V14.01,2013-04-01 01:30:00,
2013-03-31 21:31:00,47.2,39.7,29.91,SE,124,23.0,28.0,75,0.00,,---,0.00,0.00,VWS V14.01,2013-04-01 01:31:00,
2013-03-31 21:36:00,47.0,40.2,29.91,SE,124,27.0,29.0,77,0.00,,---,0.00,0.00,VWS V14.01,2013-04-01 01:36:00,
2013-03-31 21:41:00,46.8,40.3,29.91,SE,126,28.0,29.0,78,0.00,,---,0.00,0.00,VWS V14.01,2013-04-01 01:41:00,
2013-03-31 21:45:00,46.8,38.6,29.93,SE,127,20.0,25.0,73,0.00,,,0.00,0.00,VWS V14.01,2013-04-01 01:45:00,
2013-03-31 21:46:00,46.6,40.5,29.90,ESE,117,22.0,29.0,79,0.00,,---,0.00,0.00,VWS V14.01,2013-04-01 01:46:00,
2013-03-31 21:51:00,46.7,40.5,29.90,ESE,121,24.0,31.0,79,0.00,,---,0.00,0.00,VWS V14.01,2013-04-01 01:51:00,
2013-03-31 21:56:00,46.6,40.5,29.89,ESE,123,21.0,31.0,79,0.00,,---,0.00,0.00,VWS V14.01,2013-04-01 01:56:00,
2013-03-31 22:00:00,47.0,38.5,29.93,ESE,123,20.0,24.0,72,0.00,,,0.00,0.00,VWS V14.01,2013-04-01 02:00:00,
2013-03-31 22:01:00,46.4,40.9,29.89,SE,126,27.0,34.0,81,0.00,,---,0.00,0.00,VWS V14.01,2013-04-01 02:01:00,
2013-03-31 22:06:00,46.0,41.1,29.88,SE,125,24.0,33.0,83,0.00,,---,0.00,0.00,VWS V14.01,2013-04-01 02:06:00,
2013-03-31 22:11:00,45.7,41.2,29.88,SE,127,25.0,33.0,84,0.02,,---,0.02,0.00,VWS V14.01,2013-04-01 02:11:00,
2013-03-31 22:16:00,45.6,41.4,29.87,SE,128,24.0,33.0,85,0.02,,---,0.02,0.00,VWS V14.01,2013-04-01 02:16:00,
2013-03-31 22:21:00,45.4,41.5,29.87,ESE,121,23.0,31.0,86,0.02,,---,0.02,0.00,VWS V14.01,2013-04-01 02:21:00,
2013-03-31 22:30:00,47.2,39.7,29.91,SE,126,21.0,28.0,75,0.00,,,0.00,0.00,VWS V14.01,2013-04-01 02:30:00,
2013-03-31 22:31:00,45.3,41.7,29.85,ESE,112,28.0,32.0,87,0.02,,---,0.02,0.00,VWS V14.01,2013-04-01 02:31:00,
2013-03-31 22:36:00,45.2,41.9,29.85,SE,126,24.0,31.0,88,0.02,,---,0.02,0.00,VWS V14.01,2013-04-01 02:36:00,
2013-03-31 22:41:00,45.0,42.0,29.84,ESE,119,29.0,31.0,89,0.02,,---,0.02,0.00,VWS V14.01,2013-04-01 02:41:00,
2013-03-31 22:46:00,45.0,42.2,29.83,ESE,118,23.0,25.0,90,0.02,,---,0.02,0.00,VWS V14.01,2013-04-01 02:46:00,
2013-03-31 22:52:00,45.0,42.2,29.83,ESE,119,24.0,28.0,90,0.02,,---,0.02,0.00,VWS V14.01,2013-04-01 02:52:00,
2013-03-31 22:57:00,45.1,42.6,29.82,ESE,120,29.0,32.0,91,0.02,,---,0.02,0.00,VWS V14.01,2013-04-01 02:57:00,
2013-03-31 23:00:00,46.4,40.9,29.89,SE,130,23.0,34.0,81,0.00,,,0.00,0.00,VWS V14.01,2013-04-01 03:00:00,
2013-03-31 23:02:00,45.4,42.9,29.81,ESE,115,28.0,31.0,91,0.02,,---,0.02,0.00,VWS V14.01,2013-04-01 03:02:00,
2013-03-31 23:07:00,45.4,42.9,29.81,ESE,115,25.0,32.0,91,0.04,,---,0.04,0.00,VWS V14.01,2013-04-01 03:07:00,
2013-03-31 23:12:00,45.4,42.9,29.80,ESE,111,28.0,32.0,91,0.04,,---,0.04,0.00,VWS V14.01,2013-04-01 03:12:00,
2013-03-31 23:17:00,45.4,43.2,29.79,ESE,111,26.0,29.0,92,0.02,,---,0.04,0.00,VWS V14.01,2013-04-01 03:17:00,
2013-03-31 23:22:00,45.4,43.2,29.78,ESE,122,27.0,31.0,92,0.02,,---,0.04,0.00,VWS V14.01,2013-04-01 03:22:00,
2013-03-31 23:27:00,45.4,43.2,29.78,ESE,116,26.0,31.0,92,0.02,,---,0.04,0.00,VWS V14.01,2013-04-01 03:27:00,
2013-03-31 23:32:00,45.4,43.2,29.78,ESE,114,24.0,25.0,92,0.02,,---,0.04,0.00,VWS V14.01,2013-04-01 03:32:00,
2013-03-31 23:37:00,45.5,43.3,29.78,ESE,113,26.0,27.0,92,0.02,,---,0.04,0.00,VWS V14.01,2013-04-01 03:37:00,
2013-03-31 23:42:00,45.5,43.6,29.78,ESE,107,21.0,29.0,93,0.02,,---,0.04,0.00,VWS V14.01,2013-04-01 03:42:00,
2013-03-31 23:47:00,45.4,43.5,29.77,ESE,112,16.0,22.0,93,0.04,,---,0.06,0.00,VWS V14.01,2013-04-01 03:47:00,
2013-03-31 23:52:00,45.4,43.5,29.77,ESE,110,16.0,23.0,93,0.04,,---,0.06,0.00,VWS V14.01,2013-04-01 03:52:00,
2013-03-31 23:57:00,45.3,43.4,29.76,ESE,115,20.0,23.0,93,0.06,,---,0.08,0.00,VWS V14.01,2013-04-01 03:57:00,